Terminal Aerodrome Forecast
Issued by NWS

Home | Current Version | Previous Version | Text Only | Print | Product List | Glossary Off
Versions: 1 2 3 4 5 6 7 8 9 10 11 12 13 14 15 16 17 18 19 20

147
FTUS44 KTSA 261855 AAA
TAFMLC
TAF AMD
KMLC 261855Z 2619/2718 17010KT P6SM SCT024 BKN035
     FM270000 17012KT P6SM BKN250
     FM270300 16011KT P6SM VCTS OVC015CB
     FM270900 17009KT P6SM VCTS OVC009CB PROB30 2709/2715 2SM +TSRA
      BKN007CB=

USA.gov is the U.S. government's official web portal to all federal, state and local government web resources and services.